Latest Observation

65 Stations

10 Minute Data
as of 5/5/26 3:38 AM PDT
Station Date Time Temp (°F) RH (%) Dew Pt (°F) Wind Spd (mph) Wind Dir (°) Wind Gust (mph) Wind Gst Dir (°) Latest Rain (In) Soil Moist (%) Soil Temp (°F) Daily Rain (In) Daily Min Temp (°F) Daily Max Temp (°F) Daily Max Wind (mph)
Hobart Mills 5/5/26 0330 36.5   0.0 100   1 36.5   0.1 0.0   1.1 N | 0 0.0   1.9 WSW | 255 0.00 - 32.0   0.0 0.03 34.4   2.0 45.9   8.9 6.0   4.1
Prosser Dam 5/5/26 0330 37.1   1.0 97   0 36.3   1.0 1.0   0.1 ENE | 75 2.1   0.6 ENE | 78 0.00 23.2   2.4 46.8   2.1 0.00 36.7   1.2 37.2   2.4 4.1   1.2
West Incline Village 5/5/26 0330 33.3   4.7 99   8 33.1   2.7 0.0   2.0 N | 0 0.0   3.1 N | 2 0.01 35.8   5.0 43.6   1.0 0.10 32.5   4.0 33.6   5.4 0.0   5.1
Incline Village (Fairview Blvd) 5/5/26 0330 34.3   5.8 99   9 34.0   3.5 0.0   0.0 N | 0 0.0   0.0 NNE | 27 0.01 30.4   4.6 50.1   1.8 0.09 33.5   5.5 34.4   5.8 0.0   2.9
Incline Village (Diamond Peak) 5/5/26 0330 32.7   5.9 99   12 32.4   2.7 0.0   1.1 N | 0 0.0   4.3 NW | 306 0.00 8.1   0.2 41.8   3.1 0.01 31.8   5.9 32.8   6.0 0.0   4.3
Incline Village (Mill Creek) 5/5/26 0330 35.0   5.8 98   6 34.5   4.1 0.0   0.8 N | 0 0.0   3.6 ENE | 74 0.01 11.0   1.3 45.7   0.6 0.07 33.8   5.5 35.2   5.9 1.7   3.2
Incline Village (Lakeshore Blvd) 5/5/26 0330 36.3   3.8 100   7 36.2   2.1 0.0   1.2 N | 0 0.0   2.5 N | 354 0.00 39.0   4.5 46.1   4.6 0.02 35.8   3.7 36.8   4.9 2.6   0.0
Glenbrook 5/5/26 0330 35.1   5.3 96   3 34.0   4.4 0.6   0.2 SE | 140 2.0   0.2 SSE | 149 0.00 44.3   0.0 44.7   0.6 0.05 34.2   5.5 35.2   5.6 6.0   2.1
Zephyr Cove 5/5/26 0330 33.0   8.6 99   16 32.8   3.9 0.0   0.0 N | 0 0.0   0.0 NNE | 29 0.00 - 34.3   0.0 0.00 32.6   8.5 33.0   8.6 0.0   0.0
Kingsbury Grade 5/5/26 0330 32.3   6.2 98   4 31.8   5.2 0.0   0.0 N | 0 0.0   0.0 NNE | 12 0.00 4.9   2.1 48.1   4.5 0.00 32.0   6.4 32.5   7.1 0.0   2.7
South Daggett Pass (Ridge) 5/5/26 0330 31.8   4.9 100   6 31.8   3.4 0.0   3.4 N | 0 0.0   6.5 WNW | 283 0.00 6.4   0.1 46.8   1.6 0.00 31.2   5.2 31.8   5.7 0.0   14.0
Palomino Valley 5/5/26 0330 47.4   3.5 81   19 41.9   3.7 0.5   0.3 SSE | 158 2.2   0.9 SSE | 151 0.00 6.8   0.0 62.5   1.3 0.00 46.2   1.7 47.6   3.8 5.1   0.1
East Cold Springs 5/5/26 0330 42.4   3.5 87   14 38.8   1.1 10.4   0.1 W | 259 15.3   2.2 W | 263 0.01 1.6   0.1 54.2   1.1 0.09 40.3   3.7 42.6   3.7 17.8   0.1
Peavine 5/5/26 0330 42.6   6.2 89   33 39.5   5.8 8.0   4.6 NNE | 23 15.3   7.1 N | 11 0.00 - 53.4   0.0 0.00 40.7   0.7 44.1   5.2 16.3   7.8
West Verdi Peak 5/5/26 0330 39.1   2.7 90   10 36.4   0.2 2.4   0.0 WSW | 254 7.0   1.9 WSW | 249 0.00 21.3   5.1 49.3   1.4 0.00 37.1   4.5 39.2   7.4 11.7   0.1
West Verdi 5/5/26 0330 41.7   5.2 91   20 39.1   1.2 2.0   1.4 W | 276 4.5   1.4 W | 279 0.00 8.4   0.7 57.3   2.3 0.00 40.2   4.9 42.2   6.4 6.5   2.7
South Verdi 5/5/26 0330 42.3   4.7 81   14 36.8   0.2 17.0   1.0 WSW | 248 21.0   2.7 WSW | 248 0.00 16.8   0.6 50.6   4.5 0.00 41.1   5.4 42.8   6.2 23.2   4.1
Northwest Reno 5/5/26 0330 43.8   5.9 85   25 39.6   3.4 3.6   4.2 E | 92 5.2   7.3 E | 96 0.00 23.5   0.3 58.7   2.8 0.00 43.5   5.1 45.5   6.8 13.5   10.8
North Lawton 5/5/26 0330 43.1   4.7 81   16 37.6   1.0 7.8   2.5 WSW | 257 11.6   2.9 W | 267 0.00 - 39.1   0.0 0.00 42.5   5.1 43.5   6.0 16.8   3.4
West Reno (Mogul) 5/5/26 0330 44.0   3.9 81   15 38.6   1.6 2.6   0.7 WNW | 294 6.3   3.0 NW | 318 0.00 38.5   0.1 60.3   0.8 0.00 42.6   4.3 46.6   2.8 13.5   3.5
Caughlin (Hunter Lake Trail) 9/16/25 0800 59.7   3.5 41   11 35.9   2.7 0.0   0.0 N | 0 0.0   0.0 ENE | 66 0.00 15.7   0.0 69.8   0.5 0.00 55.7   3.2 67.7   9.1 9.4   0.9
ArrowCreek 5/5/26 0330 44.4   3.3 89   24 41.4   5.0 0.0   1.3 N | 0 0.0   6.0 WSW | 237 0.00 - 32.0   0.0 0.00 43.4   3.6 44.9   5.4 4.3   5.8
Tracy 5/5/26 0330 48.7   5.0 74   18 40.7   2.4 12.6   1.4 WSW | 244 18.8   2.8 SW | 233 0.00 7.9   0.1 61.6   2.1 0.00 47.8   5.1 49.1   4.9 18.8   2.2
Virginia Highlands 5/5/26 0330 40.2   4.8 98   31 39.7   4.8 1.3   1.3 NW | 317 4.2   4.2 NW | 308 0.00 9.8   2.6 55.9   1.0 0.00 40.1   4.0 41.0   6.1 5.8   2.1
Virginia City 5/5/26 0330 39.3   5.9 99   36 39.0   5.8 3.7   2.5 ESE | 116 6.0   2.4 ESE | 121 0.00 8.2   0.1 52.3   2.9 0.01 38.6   6.0 39.4   6.9 8.8   8.0
Six Mile Canyon 9/9/25 0630 60.2   9.6 37   6 33.7   4.8 4.1   2.5 W | 277 6.1   2.9 WNW | 286 0.00 12.5   0.0 75.5   0.7 0.00 57.9   7.6 64.4   1.9 7.0   3.9
Mt Rose Highway 4/30/26 0510 40.8   4.7 47   13 22.3   1.3 2.3   0.2 WSW | 243 4.8   2.1 WSW | 246 0.00 24.1   0.3 43.0   0.8 0.00 40.5   4.7 43.0   5.3 7.7   0.4
Pleasant Valley 5/5/26 0330 44.0   2.3 89   17 41.1   3.1 1.2   1.9 SSW | 197 2.9   2.5 SSW | 198 0.00 2.8   0.0 59.2   3.3 0.01 43.7   1.7 44.4   4.6 6.0   1.5
New Washoe City 5/5/26 0330 43.1   4.0 94   25 41.5   4.1 0.0   4.0 N | 0 0.0   7.7 NNW | 335 0.00 4.4   0.1 56.7   1.9 0.01 42.8   1.7 43.4   5.2 4.7   3.6
Franktown Creek 5/5/26 0330 43.4   2.4 97   20 42.7   3.4 0.2   0.2 N | 357 1.2   1.2 N | 353 0.00 10.9   0.3 54.1   2.0 0.01 42.8   0.8 43.5   2.9 4.6   0.4
Musgrove Creek 5/5/26 0330 41.0   7.1 94   32 39.4   3.6 0.0   2.2 N | 0 0.0   6.0 SW | 232 0.00 44.8   1.1 52.3   0.8 0.01 41.0   3.8 42.1   7.5 8.3   3.0
East Carson 11/23/24 0110 28.6   28.4 - - 4.7   11.0 SW | 220 14.7   10.1 SW | 219 0.02 - 50.9   0.1 0.02 -25.9   79.1 42.9   14.6 16.0   10.7
Kings Canyon 5/5/26 0330 41.8   3.5 97   25 41.1   4.1 1.2   1.2 NE | 36 3.7   0.2 NNE | 19 0.00 15.1   0.1 54.0   2.4 0.05 41.5   3.3 42.1   6.0 6.7   1.2
Carson City (Voltaire Canyon) 5/5/26 0330 43.0   6.9 89   28 39.9   3.1 2.2   0.7 SSW | 200 6.1   0.4 WSW | 237 0.00 2.8   0.1 61.1   1.2 0.00 42.1   6.3 43.4   7.5 13.4   10.7
Jacks Valley 5/5/26 0330 41.7   4.9 95   28 40.4   4.1 1.8   0.6 WSW | 250 3.5   0.0 SW | 226 0.01 12.0   2.4 54.2   5.9 0.13 41.6   3.9 42.1   7.9 7.5   9.6
Genoa 5/5/26 0330 44.0   4.5 96   29 43.0   4.6 0.0   0.0 N | 0 0.0   0.0 WNW | 283 0.00 13.8   8.4 50.4   3.5 0.14 43.8   2.7 44.6   8.5 3.7   9.3
South Genoa (Walleys Hot Springs) 5/5/26 0330 44.3   3.8 93   21 42.4   3.1 0.0   0.0 N | 0 0.0   0.0 SE | 144 0.00 14.4   0.8 60.9   2.2 0.13 44.2   2.0 45.4   5.3 7.9   0.3
SW Gardnerville (HWY 88) 5/5/26 0330 43.6   2.0 96   11 42.6   1.1 2.8   1.0 SSE | 152 3.6   0.0 S | 174 0.00 3.3   0.1 54.8   1.8 0.00 43.5   1.8 44.3   4.5 7.2   1.6
Sheridan 5/5/26 0330 43.4   5.3 94   26 41.8   3.2 1.3   2.1 SE | 142 3.8   1.7 SSW | 206 0.00 3.9   1.6 57.3   1.4 0.09 43.2   2.7 44.6   5.4 8.7   1.5
Ruhenstroth 5/5/26 0330 43.1   5.0 93   30 41.4   5.0 1.0   1.9 WSW | 254 4.0   0.6 WSW | 248 0.02 12.6   0.2 55.7   1.2 0.15 43.0   4.6 44.5   6.7 4.7   11.8
Double Spring 5/5/26 0330 40.5   0.6 90   12 37.8   3.1 4.6   1.5 NNW | 344 7.7   2.5 NW | 322 0.00 28.5   0.0 52.8   1.5 0.00 40.0   0.5 41.7   2.4 10.4   4.1
North Topaz Lake 5/5/26 0330 43.0   3.5 82   17 37.7   2.3 11.9   11.9 W | 271 17.4   17.4 W | 279 0.00 9.0   0.0 52.8   1.0 0.00 42.4   3.8 44.1   7.1 20.2   10.3
Wild Oat Mountain 5/5/26 0330 40.8   5.4 90   31 38.3   5.4 1.9   1.2 W | 267 7.1   3.6 NW | 325 0.00 16.5   0.1 55.9   1.8 0.00 40.3   5.2 42.2   5.8 14.4   8.1
Smith Valley 5/5/26 0330 45.7   3.9 89   36 42.7   9.5 2.1   1.6 SSE | 153 3.7   3.8 SSE | 157 0.00 5.8   0.1 58.9   1.5 0.00 45.6   2.8 46.4   6.8 6.5   1.1
Pine Grove Mountain 5/5/26 0330 32.0   7.4 96   35 31.0   3.8 4.0   1.4 SSW | 208 5.5   1.1 SSW | 208 0.00 15.0   0.5 44.9   2.7 0.02 32.0   7.1 32.9   7.8 7.0   3.0
Paradise Hill 5/5/26 0330 50.4   2.0 61   12 37.4   7.2 3.6   3.4 NE | 35 7.0   3.7 NNW | 345 0.00 8.0   0.0 60.5   0.8 0.00 46.7   1.1 53.5   7.1 12.8   0.2
Winnemucca 5/5/26 0330 48.1   1.2 79   25 41.9   8.3 7.4   0.4 SSW | 212 10.9   2.6 SW | 233 0.00 5.9   0.0 58.7   0.2 0.00 46.0   3.2 49.8   5.9 14.4   5.7
NE Elko 5/5/26 0330 48.5   12.4 65   23 37.3   22.3 2.9   2.9 W | 278 8.4   8.4 WSW | 251 0.00 12.5   0.0 59.3   1.9 0.00 46.6   11.3 51.4   7.5 19.0   12.4
North Elko 5/5/26 0330 44.8   2.0 75   33 37.4   12.3 10.5   10.2 W | 262 16.4   14.8 W | 262 0.00 28.6   0.0 58.0   1.3 0.00 44.5   1.1 46.4   10.4 17.3   6.2
South Elko 5/5/26 0330 54.9   5.1 82   29 49.4   7.0 5.6   1.4 SE | 145 7.5   0.7 SE | 142 0.00 18.7   0.1 57.2   1.6 0.00 46.2   3.6 99.6   6.9 15.4   7.1
Lamoille 1/28/26 1720 33.2   0.5 65   17 22.8   6.3 5.8   1.5 SSE | 166 7.7   1.9 SE | 139 0.00 12.2   0.0 33.4   0.1 0.02 23.5   2.0 36.5   5.9 25.6   17.4
Reid Gardner Sub 5/5/26 0330 62.1   10.3 37   17 35.8   6.1 4.5   3.5 S | 190 6.8   4.8 S | 191 0.00 24.4   2.9 72.6   1.5 0.00 62.0   3.0 66.5   6.1 15.4   3.7
Corn Creek 5/5/26 0330 55.4   9.0 45   15 34.2   2.4 6.5   3.7 ESE | 113 9.9   6.1 SE | 128 0.00 3.9   0.1 71.9   3.4 0.00 55.1   8.8 58.0   11.4 12.3   5.1
Lucky Strike 5/5/26 0330 46.6   12.8 40   16 23.7   0.4 4.3   11.2 SSW | 208 5.6   22.4 SSW | 194 0.00 4.5   0.1 65.9   0.9 0.00 45.1   12.7 49.7   10.5 9.6   18.4
Lower Angel Peak 5/5/26 0330 38.6   13.1 49   17 21.2   1.6 4.1   3.2 SSE | 163 5.5   7.7 S | 177 0.00 10.4   0.0 55.7   0.4 0.00 35.4   16.1 39.8   14.5 8.8   9.1
Angel Peak 5/5/26 0330 33.4   7.4 49   12 16.2   0.2 7.7   10.5 SSE | 166 9.9   18.5 S | 170 0.00 3.5   0.0 48.2   0.8 0.00 33.0   6.7 35.6   7.0 11.2   23.4
Upper Kyle Canyon 5/5/26 0330 34.8   11.0 39   13 12.4   0.9 1.5   4.4 NNW | 340 5.2   6.7 NW | 312 0.00 13.7   0.0 55.1   1.8 0.00 33.3   12.3 37.2   10.6 7.1   12.3
Mt Charleston 5/5/26 0330 34.8   9.8 44   11 15.3   2.0 1.7   0.1 W | 266 3.5   1.7 NW | 313 0.00 18.3   0.0 48.2   0.4 0.00 33.9   10.2 37.4   11.4 7.2   6.6
Mid Kyle Canyon 5/5/26 0330 39.5   6.7 38   8 16.2   10.4 7.1   2.7 WNW | 298 10.2   1.0 WNW | 303 0.00 7.0   0.1 57.6   0.4 0.00 37.7   7.5 41.6   13.0 14.0   1.7
Blue Diamond 5/5/26 0330 54.6   9.8 45   17 33.8   3.1 7.2   3.6 NW | 308 13.0   4.5 NW | 310 0.00 3.5   0.0 69.8   0.0 0.00 54.0   9.6 56.1   11.2 18.5   3.5
Artesian Sub 5/5/26 0330 61.8   8.4 40   7 37.3   2.6 5.3   1.7 SE | 132 11.6   3.4 ESE | 116 0.00 13.4   0.0 74.1   0.5 0.00 61.7   8.4 65.7   11.5 13.8   5.7
North Henderson 5/5/26 0330 63.1   8.6 39   7 37.6   2.5 8.9   0.8 SSW | 201 14.8   5.0 SSW | 205 0.00 8.9   0.1 79.2   0.5 0.00 63.0   8.6 65.6   11.2 19.6   3.8
Sandy Valley 5/5/26 0330 53.8   5.5 56   9 38.5   0.8 3.5   0.8 ESE | 120 5.1   1.9 SE | 134 0.00 4.5   0.1 76.6   2.7 0.00 53.4   5.2 56.1   8.1 7.8   3.6
Searchlight 5/5/26 0340 50.0   8.8 59   15 36.3   0.8 5.3   0.3 NNW | 340 7.8   1.9 NNW | 331 0.00 4.6   0.1 71.6   4.1 0.00 49.1   9.1 53.0   11.8 8.1   6.3
Laughlin 5/5/26 0330 66.8   10.7 41   8 42.6   4.2 6.4   2.3 S | 186 9.6   5.0 S | 186 0.00 4.1   0.0 83.7   1.8 0.00 65.6   11.7 70.1   12.6 11.6   14.3
Max     66.8 100 49.4 17.0 - 21.0 - 0.02 44.8 83.7 0.15 65.6 99.6 23.2
Avg     43.3 79 36.2 3.6 - 6.0 - 0.00 13.8 55.4 - - - -
Min     31.8 37 12.4 0.0 - 0.0 - 0.00 1.6 32.0 0.00 31.2 31.8 0.0